Latest Weather Observations for Gladstone Airport

IDQ60801

Issued at 7:52 pm EST Monday 17 December 2018 (issued every 10 minutes, with the page automatically refreshed every 10 minutes)

About weather observations | Map of weather stations | Latest weather observations for QLD | Other Formats
Station Details ID: 039326 Name: GLADSTONE AIRPORT Lat: -23.87 Lon: 151.22 Height: 16.6 m
Data from the previous 72 hours. | See also: Recent months at Gladstone Airport
Date/Time
EST
Temp
°C
App
Temp
°C
Dew
Point
°C
Rel
Hum
%
Delta-T
°C
Wind Press
QNH
hPa
Press
MSL
hPa
Rain since
9am
mm
Dir  Spd
km/h
Gust
km/h
Spd
kts
Gust
kts
17/07:30pm 26.5 26.3 20.6 70 3.9 SE 22 37 12 20 1006.4 1006.3 0.0
17/07:00pm 26.7 27.4 21.5 73 3.5 ESE 20 28 11 15 1006.0 1005.9 0.0
17/06:30pm 27.8 27.5 20.4 64 4.9 SE 22 32 12 17 1005.4 1005.3 0.0
17/06:00pm 28.5 27.9 20.5 62 5.3 SE 24 32 13 17 1005.0 1004.9 0.0
17/05:30pm 28.2 28.1 21.5 67 4.5 ESE 24 33 13 18 1004.7 1004.6 0.0
17/05:00pm 28.5 28.8 21.5 66 4.7 ESE 22 33 12 18 1004.6 1004.5 0.0
17/04:30pm 28.6 27.7 21.4 65 4.8 ESE 28 35 15 19 1004.5 1004.4 0.0
17/04:00pm 28.2 26.3 21.0 65 4.8 ESE 32 43 17 23 1004.5 1004.4 0.0
17/03:30pm 28.4 26.9 21.7 67 4.5 ESE 32 41 17 22 1004.7 1004.6 0.0
17/03:00pm 28.8 27.1 21.3 64 5.0 ESE 32 43 17 23 1004.9 1004.8 0.0
17/02:30pm 28.7 26.7 21.2 64 5.0 ESE 33 43 18 23 1005.0 1004.9 0.0
17/02:00pm 29.4 28.2 21.6 63 5.3 ESE 30 41 16 22 1005.3 1005.2 0.0
17/01:30pm 28.2 27.4 21.7 68 4.4 ESE 28 37 15 20 1005.7 1005.6 0.0
17/01:00pm 28.0 27.3 21.8 69 4.2 ESE 28 39 15 21 1005.9 1005.8 0.0
17/12:30pm 28.1 26.9 20.9 65 4.8 ESE 28 35 15 19 1006.0 1005.9 0.0
17/12:00pm 28.2 27.1 20.2 62 5.3 SE 26 37 14 20 1005.9 1005.8 0.0
17/11:30am 28.0 26.5 20.3 63 5.1 SE 28 41 15 22 1005.9 1005.8 0.0
17/11:00am 26.9 25.6 20.7 69 4.1 SE 28 43 15 23 1006.2 1006.1 0.0
17/10:44am 26.4 24.6 21.2 73 3.4 SE 32 50 17 27 1006.5 1006.4 0.0
17/10:30am 26.8 25.5 21.3 72 3.7 SE 30 43 16 23 1006.3 1006.2 0.0
17/10:20am 26.8 25.2 21.6 73 3.5 SE 32 50 17 27 1006.5 1006.4 0.0
17/10:00am 25.7 25.7 21.6 78 2.7 SE 24 46 13 25 1006.8 1006.7 0.0
17/09:48am 26.1 25.6 22.2 79 2.6 ESE 28 50 15 27 1007.0 1006.9 0.0
17/09:30am 25.7 25.6 21.4 77 2.9 SE 24 35 13 19 1007.0 1006.9 0.0
17/09:00am 24.8 24.9 21.9 84 1.9 SE 24 33 13 18 1007.5 1007.4 21.8
17/08:30am 25.0 25.3 21.5 81 2.3 SE 22 35 12 19 1007.4 1007.3 21.8
17/08:00am 24.6 25.1 21.1 81 2.3 SE 20 33 11 18 1007.3 1007.2 21.8
17/07:38am 24.3 24.1 21.2 83 2.0 SE 24 32 13 17 1007.3 1007.2 21.8
17/07:30am 24.1 24.1 21.0 83 2.0 SE 22 32 12 17 1007.3 1007.2 21.8
17/07:00am 23.7 24.0 21.6 88 1.4 SE 22 30 12 16 1007.0 1006.9 21.8
17/06:55am 23.6 24.0 21.7 89 1.3 SE 22 32 12 17 1006.9 1006.8 21.8
17/06:30am 23.4 24.3 22.0 92 0.9 SE 20 28 11 15 1006.5 1006.4 21.8
17/06:18am 23.6 25.0 21.9 90 1.1 SE 17 24 9 13 1006.4 1006.3 21.8
17/06:14am 23.7 25.5 21.8 89 1.3 SSE 15 20 8 11 1006.4 1006.3 21.8
17/06:00am 23.7 25.6 21.4 87 1.5 SSE 13 20 7 11 1006.2 1006.1 21.8
17/05:30am 23.6 25.3 20.9 85 1.8 SSE 13 19 7 10 1006.1 1006.0 21.8
17/05:00am 23.8 26.0 21.1 85 1.8 SE 11 17 6 9 1005.7 1005.6 21.6
17/04:30am 23.8 25.6 21.1 85 1.8 SE 13 17 7 9 1005.6 1005.5 21.6
17/04:00am 23.7 25.5 21.2 86 1.6 SE 13 17 7 9 1005.3 1005.2 21.6
17/03:30am 23.4 25.7 21.3 88 1.4 SSE 11 17 6 9 1005.1 1005.0 21.6
17/03:00am 23.4 25.3 21.3 88 1.4 SSE 13 20 7 11 1005.2 1005.1 21.6
17/02:30am 23.2 26.2 21.3 89 1.2 SE 7 11 4 6 1005.3 1005.2 21.6
17/02:23am 23.2 26.2 21.3 89 1.2 SSE 7 11 4 6 1005.3 1005.2 21.6
17/02:00am 23.3 25.9 21.2 88 1.4 SSE 9 15 5 8 1005.6 1005.5 21.4
17/01:56am 23.4 25.5 20.9 86 1.6 SSE 11 17 6 9 1005.7 1005.6 21.4
17/01:30am 23.8 26.1 20.7 83 2.0 S 9 13 5 7 1005.7 1005.6 21.4
17/01:00am 23.9 26.1 20.4 81 2.3 SSW 9 13 5 7 1005.8 1005.7 21.4
17/12:30am 24.1 25.5 20.4 80 2.4 S 13 19 7 10 1006.1 1006.0 21.4
17/12:00am 24.1 25.7 20.8 82 2.2 SSE 13 20 7 11 1006.5 1006.4 21.4
 
Date/Time
EST
Temp
°C
App
Temp
°C
Dew
Point
°C
Rel
Hum
%
Delta-T
°C
Wind Press
QNH
hPa
Press
MSL
hPa
Rain since
9am
mm
Dir  Spd
km/h
Gust
km/h
Spd
kts
Gust
kts
16/11:30pm 24.2 26.5 21.3 84 1.9 SSE 11 19 6 10 1006.8 1006.7 21.4
16/11:00pm 24.7 25.5 21.4 82 2.2 SE 19 26 10 14 1007.1 1007.0 21.4
16/10:35pm 24.6 25.6 22.1 86 1.7 ESE 20 30 11 16 1007.0 1006.9 21.4
16/10:30pm 24.7 25.4 22.2 86 1.7 SE 22 33 12 18 1007.1 1007.0 21.4
16/10:20pm 24.6 26.2 22.1 86 1.7 SE 17 26 9 14 1007.3 1007.2 21.4
16/10:19pm 24.6 26.2 22.1 86 1.7 SE 17 26 9 14 1007.3 1007.2 21.4
16/10:00pm 24.5 25.3 22.4 88 1.4 ESE 22 33 12 18 1007.2 1007.1 21.4
16/09:59pm 24.5 25.3 22.4 88 1.4 ESE 22 33 12 18 1007.2 1007.1 21.4
16/09:30pm 24.3 24.4 22.6 90 1.1 E 26 37 14 20 1007.0 1006.9 21.2
16/09:00pm 24.5 25.5 22.2 87 1.5 ESE 20 30 11 16 1007.7 1007.6 20.6
16/08:30pm 24.6 23.8 22.3 87 1.5 E 30 41 16 22 1006.3 1006.2 20.4
16/08:00pm 24.3 25.6 22.6 90 1.1 E 20 28 11 15 1006.7 1006.6 20.4
16/07:30pm 24.4 26.7 22.8 91 1.1 E 15 19 8 10 1006.8 1006.7 20.2
16/07:00pm 24.4 26.7 22.8 91 1.1 ESE 15 19 8 10 1006.6 1006.5 20.2
16/06:30pm 24.4 27.5 22.8 91 1.1 ESE 11 15 6 8 1006.5 1006.4 20.2
16/06:00pm 24.6 27.6 22.7 89 1.3 E 11 13 6 7 1006.6 1006.5 20.0
16/05:30pm 24.7 27.9 22.4 87 1.5 E 9 11 5 6 1006.5 1006.4 19.6
16/05:00pm 24.6 29.1 22.3 87 1.5 ESE 2 7 1 4 1006.5 1006.4 19.6
16/04:30pm 24.5 28.3 22.4 88 1.4 SSE 6 7 3 4 1006.3 1006.2 19.6
16/04:00pm 24.3 27.3 22.0 87 1.5 SE 9 13 5 7 1006.0 1005.9 19.4
16/03:30pm 24.4 27.1 22.1 87 1.5 ESE 11 13 6 7 1006.3 1006.2 19.2
16/03:00pm 24.6 27.7 22.1 86 1.7 SE 9 11 5 6 1006.8 1006.7 18.6
16/02:30pm 25.1 29.6 21.6 81 2.3 CALM 0 0 0 0 1007.3 1007.2 17.8
16/02:00pm 25.0 28.1 21.5 81 2.3 SSE 7 11 4 6 1007.4 1007.3 17.6
16/01:30pm 25.2 28.5 22.5 85 1.8 SSE 9 15 5 8 1007.7 1007.6 17.6
16/01:00pm 24.4 26.9 21.7 85 1.8 SSE 11 17 6 9 1008.0 1007.9 17.6
16/12:30pm 23.9 26.6 22.2 90 1.1 SSE 11 17 6 9 1008.5 1008.4 17.6
16/12:00pm 23.4 26.1 21.3 88 1.4 SE 9 13 5 7 1008.7 1008.6 17.2
16/11:30am 22.9 24.4 20.6 87 1.5 ESE 13 17 7 9 1009.3 1009.2 16.6
16/11:26am 22.9 24.4 20.6 87 1.5 ESE 13 20 7 11 1009.3 1009.2 16.4
16/11:00am 22.2 23.6 20.3 89 1.2 SE 13 17 7 9 1009.6 1009.5 15.0
16/10:30am 22.2 22.3 20.3 89 1.2 ESE 20 28 11 15 1009.9 1009.8 11.8
16/10:00am 22.9 25.7 21.5 92 0.9 NE 9 20 5 11 1010.0 1009.9 6.2
16/09:30am 23.6 25.4 21.9 90 1.1 NE 15 24 8 13 1009.6 1009.5 0.8
16/09:09am 24.9 28.8 23.0 89 1.3 E 7 11 4 6 1009.5 1009.4 0.0
16/09:00am 24.8 28.3 22.9 89 1.3 ENE 9 17 5 9 1009.4 1009.3 33.0
16/08:52am 24.7 26.9 22.6 88 1.4 ENE 15 20 8 11 1009.3 1009.2 32.8
16/08:30am 24.5 28.6 22.9 91 1.1 SE 6 9 3 5 1009.3 1009.2 32.6
16/08:19am 24.4 28.2 22.8 91 1.1 SE 7 9 4 5 1009.2 1009.1 32.6
16/08:00am 24.1 26.6 22.4 90 1.1 SE 13 17 7 9 1009.1 1009.0 32.4
16/07:56am 24.1 26.6 22.4 90 1.1 ESE 13 19 7 10 1009.1 1009.0 32.4
16/07:30am 23.9 26.5 22.0 89 1.3 ESE 11 13 6 7 1008.9 1008.8 32.2
16/07:00am 24.3 26.1 21.2 83 2.0 E 13 17 7 9 1008.8 1008.7 31.4
16/06:30am 24.3 24.9 21.0 82 2.2 E 19 28 10 15 1008.6 1008.5 31.4
16/06:00am 24.1 26.6 22.4 90 1.1 E 13 15 7 8 1008.2 1008.1 31.4
16/05:30am 24.5 26.9 22.9 91 1.1 E 15 22 8 12 1007.6 1007.5 31.4
16/05:14am 24.6 27.1 23.2 92 0.9 E 15 20 8 11 1007.5 1007.4 31.4
16/05:00am 24.4 26.0 22.8 91 1.1 ENE 19 26 10 14 1007.3 1007.2 31.2
16/04:53am 24.4 26.3 22.8 91 1.1 ENE 17 26 9 14 1007.3 1007.2 30.6
16/04:30am 24.9 27.6 23.5 92 1.0 ENE 15 19 8 10 1007.0 1006.9 29.6
16/04:00am 25.1 28.7 23.7 92 1.0 ENE 11 15 6 8 1006.8 1006.7 29.4
16/03:30am 25.3 28.9 23.7 91 1.1 ENE 11 15 6 8 1006.8 1006.7 28.8
16/03:00am 25.3 28.9 23.7 91 1.1 ENE 11 15 6 8 1006.7 1006.6 28.8
16/02:30am 25.3 28.6 23.9 92 1.0 NE 13 19 7 10 1006.8 1006.7 28.8
16/02:19am 25.2 28.5 23.8 92 1.0 NE 13 20 7 11 1006.9 1006.8 28.8
16/02:14am 25.1 28.8 23.9 93 0.8 NE 11 20 6 11 1006.9 1006.8 28.8
16/02:00am 25.0 29.3 23.6 92 1.0 NE 7 13 4 7 1007.0 1006.9 28.8
16/01:59am 25.0 29.3 23.6 92 1.0 ENE 7 13 4 7 1007.1 1007.0 28.4
16/01:30am 24.7 29.0 23.7 94 0.7 ESE 7 13 4 7 1007.0 1006.9 27.6
16/01:21am 24.6 28.9 23.6 94 0.7 ESE 7 11 4 6 1007.1 1007.0 27.6
16/01:00am 24.4 28.6 23.4 94 0.7 SE 7 9 4 5 1007.4 1007.3 27.6
16/12:30am 24.3 28.3 23.1 93 0.8 ESE 7 9 4 5 1007.3 1007.2 27.6
16/12:00am 24.2 28.3 23.0 93 0.8 SE 6 9 3 5 1007.5 1007.4 27.6
 
Date/Time
EST
Temp
°C
App
Temp
°C
Dew
Point
°C
Rel
Hum
%
Delta-T
°C
Wind Press
QNH
hPa
Press
MSL
hPa
Rain since
9am
mm
Dir  Spd
km/h
Gust
km/h
Spd
kts
Gust
kts
15/11:30pm 24.1 28.2 22.9 93 0.8 SSW 6 7 3 4 1007.8 1007.7 27.6
15/11:00pm 24.1 28.2 22.9 93 0.8 SSW 6 7 3 4 1008.0 1007.9 27.6
15/10:30pm 24.3 29.6 23.1 93 0.8 CALM 0 0 0 0 1007.9 1007.8 27.6
15/10:00pm 24.3 29.2 23.1 93 0.8 SSW 2 6 1 3 1007.8 1007.7 27.6
15/09:30pm 24.4 29.7 23.0 92 0.9 CALM 0 0 0 0 1007.8 1007.7 27.6
15/09:00pm 24.5 29.4 23.1 92 0.9 W 2 9 1 5 1008.0 1007.9 27.6
15/08:30pm 24.7 28.9 23.1 91 1.1 ESE 6 7 3 4 1007.4 1007.3 27.6
15/08:00pm 24.4 29.7 23.0 92 0.9 CALM 0 0 0 0 1007.5 1007.4 27.6
15/07:30pm 24.2 28.2 22.8 92 0.9 W 6 9 3 5 1007.9 1007.8 27.6
15/07:00pm 24.5 29.7 22.9 91 1.1 CALM 0 0 0 0 1007.6 1007.5 27.6
15/06:30pm 24.4 28.4 22.8 91 1.1 SE 6 11 3 6 1007.1 1007.0 27.6
15/06:00pm 24.5 28.7 23.1 92 0.9 SSW 6 9 3 5 1007.3 1007.2 27.6
15/05:30pm 24.2 29.0 22.8 92 0.9 N 2 6 1 3 1007.4 1007.3 27.6
15/05:19pm 24.1 28.0 22.9 93 0.8 WNW 7 15 4 8 1007.4 1007.3 27.4
15/05:00pm 24.2 26.7 23.2 94 0.7 WNW 15 24 8 13 1007.2 1007.1 26.8
15/04:43pm 24.5 28.2 23.3 93 0.8 SSW 9 13 5 7 1006.8 1006.7 22.6
15/04:39pm 24.5 28.2 23.3 93 0.8 SW 9 13 5 7 1006.8 1006.7 22.4
15/04:30pm 24.8 29.1 23.6 93 0.8 WSW 7 11 4 6 1006.7 1006.6 21.8
15/04:00pm 24.7 29.0 23.3 92 1.0 SW 6 9 3 5 1006.5 1006.4 19.8
15/03:58pm 24.7 29.0 23.3 92 1.0 SW 6 9 3 5 1006.5 1006.4 19.8
15/03:30pm 24.9 29.6 23.3 91 1.1 SE 4 11 2 6 1006.0 1005.9 18.6
15/03:00pm 24.4 29.4 22.5 89 1.3 CALM 0 6 0 3 1006.3 1006.2 17.6
15/02:47pm 24.4 28.3 22.5 89 1.3 WNW 6 11 3 6 1006.5 1006.4 17.4
15/02:32pm 24.6 27.7 22.8 90 1.2 WNW 11 17 6 9 1006.6 1006.5 17.2
15/02:30pm 24.7 28.2 22.9 90 1.2 WNW 9 17 5 9 1006.5 1006.4 17.2
15/02:00pm 25.6 29.5 24.2 92 1.0 N 11 17 6 9 1006.2 1006.1 17.0
15/01:30pm 25.3 29.5 23.5 90 1.2 NE 7 9 4 5 1006.4 1006.3 16.6
15/01:00pm 24.9 29.8 23.1 90 1.2 NNE 2 7 1 4 1006.5 1006.4 16.4
15/12:39pm 24.9 27.1 23.3 91 1.1 N 17 26 9 14 1006.3 1006.2 16.4
15/12:30pm 24.6 27.5 23.2 92 0.9 N 13 19 7 10 1006.5 1006.4 16.0
15/12:00pm 24.2 27.2 22.6 91 1.1 WNW 11 17 6 9 1007.2 1007.1 14.0
15/11:30am 26.7 31.0 25.5 93 0.8 ENE 13 19 7 10 1007.4 1007.3 9.4
15/11:16am 26.7 31.6 25.3 92 1.0 NE 9 13 5 7 1007.2 1007.1 7.4
15/11:00am 27.0 31.0 25.6 92 1.0 NE 15 20 8 11 1007.5 1007.4 3.8
15/10:43am 27.2 30.4 25.6 91 1.1 NE 19 24 10 13 1007.5 1007.4 1.4
15/10:30am 27.5 30.9 25.3 88 1.5 ENE 17 22 9 12 1007.6 1007.5 0.2
15/10:18am 27.9 31.9 25.1 85 2.0 ENE 13 19 7 10 1007.7 1007.6 0.0
15/10:00am 28.4 31.7 22.6 71 3.9 ENE 9 15 5 8 1007.8 1007.7 0.0
15/09:30am 26.7 29.8 22.8 79 2.6 ESE 11 17 6 9 1007.6 1007.5 0.0
15/09:00am 26.2 29.9 22.5 80 2.5 N 7 11 4 6 1007.9 1007.8 0.2
15/08:39am 26.4 28.4 20.7 71 3.7 NE 11 17 6 9 1007.7 1007.6 0.2
15/08:30am 26.6 29.8 23.1 81 2.4 NE 11 17 6 9 1007.9 1007.8 0.2
15/08:19am 26.7 30.3 23.0 80 2.5 NE 9 17 5 9 1007.8 1007.7 0.2
15/08:04am 27.2 31.6 24.5 85 1.9 NNE 9 11 5 6 1007.9 1007.8 0.2
15/08:00am 27.3 31.8 24.6 85 1.9 N 9 11 5 6 1007.9 1007.8 0.2
15/07:30am 26.9 31.7 24.5 87 1.7 NNE 7 9 4 5 1007.6 1007.5 0.2
15/07:00am 26.8 32.9 24.5 87 1.6 CALM 0 0 0 0 1007.3 1007.2 0.2
15/06:30am 26.7 32.5 24.5 88 1.5 SSE 2 9 1 5 1006.7 1006.6 0.2
15/06:00am 26.5 32.5 24.3 88 1.5 CALM 0 6 0 3 1006.4 1006.3 0.2
15/05:49am 26.4 32.4 24.2 88 1.5 CALM 0 0 0 0 1006.4 1006.3 0.2
15/05:30am 26.3 31.9 24.2 88 1.4 E 2 6 1 3 1006.2 1006.1 0.2
15/05:11am 26.2 31.0 24.2 89 1.4 E 6 9 3 5 1005.8 1005.7 0.2
15/05:00am 26.2 31.0 24.2 89 1.4 ENE 6 7 3 4 1005.6 1005.5 0.2
15/04:45am 26.0 30.7 24.0 89 1.4 ENE 6 7 3 4 1005.5 1005.4 0.2
15/04:30am 26.0 30.5 24.0 89 1.4 ENE 7 9 4 5 1005.3 1005.2 0.2
15/04:16am 25.9 31.3 23.9 89 1.4 SSE 2 9 1 5 1005.1 1005.0 0.2
15/04:00am 25.8 30.4 23.8 89 1.4 SSW 6 7 3 4 1005.1 1005.0 0.2
15/03:30am 26.0 30.7 23.9 88 1.4 SE 6 7 3 4 1004.8 1004.7 0.2
15/03:15am 26.0 30.7 23.9 88 1.4 NE 6 7 3 4 1004.4 1004.3 0.2
15/03:00am 25.8 30.4 23.8 89 1.4 N 6 9 3 5 1004.6 1004.5 0.2
15/02:30am 25.9 30.0 23.9 89 1.4 N 9 19 5 10 1005.0 1004.9 0.2
15/02:00am 25.9 30.4 23.9 89 1.4 NE 7 13 4 7 1004.4 1004.3 0.2
15/01:30am 26.1 30.7 23.8 87 1.6 NE 6 7 3 4 1004.5 1004.4 0.2
15/01:00am 26.2 30.6 23.5 85 1.8 NNE 6 7 3 4 1005.0 1004.9 0.2
15/12:30am 26.3 30.7 23.4 84 2.0 N 6 9 3 5 1005.2 1005.1 0.2
15/12:00am 26.7 30.0 23.2 81 2.4 N 11 17 6 9 1005.2 1005.1 0.2
 
Date/Time
EST
Temp
°C
App
Temp
°C
Dew
Point
°C
Rel
Hum
%
Delta-T
°C
Wind Press
QNH
hPa
Press
MSL
hPa
Rain since
9am
mm
Dir  Spd
km/h
Gust
km/h
Spd
kts
Gust
kts
14/11:30pm 26.5 30.4 23.6 84 2.0 N 9 15 5 8 1005.4 1005.3 0.2
14/11:00pm 26.6 30.6 23.7 84 2.0 N 9 13 5 7 1005.9 1005.8 0.2
14/10:30pm 26.7 31.4 24.0 85 1.9 NNW 6 9 3 5 1006.0 1005.9 0.2
14/10:03pm 26.7 31.2 24.0 85 1.9 N 7 13 4 7 1005.5 1005.4 0.2
14/10:00pm 26.8 31.0 24.1 85 1.9 N 9 13 5 7 1005.4 1005.3 0.2
14/09:30pm 26.7 30.8 24.0 85 1.9 NNE 9 13 5 7 1004.7 1004.6 0.2
14/09:21pm 26.8 31.0 24.1 85 1.9 N 9 13 5 7 1004.8 1004.7 0.2
14/09:00pm 26.8 30.9 23.9 84 2.0 NNE 9 13 5 7 1004.6 1004.5 0.2
14/08:30pm 26.7 30.6 24.2 86 1.7 NE 11 15 6 8 1004.2 1004.1 0.2
14/08:00pm 26.9 30.7 24.0 84 2.0 NNE 11 13 6 7 1004.3 1004.2 0.2

Other Formats:

Comma delimited format used in spreadsheet applications
http://www.bom.gov.au/fwo/IDQ60801/IDQ60801.94381.axf

JavaScript Object Notation format (JSON) in row-major order
http://www.bom.gov.au/fwo/IDQ60801/IDQ60801.94381.json